Terminal Aerodrome Forecast
Issued by NWS

Home | Current Version | Previous Version | Graphics & Text | Print | Product List | Glossary On
Versions: 1 2 3 4 5 6 7 8 9 10 11 12 13 14 15 16 17 18 19 20 21 22 23 24 25 26 27 28 29 30 31 32 33 34 35 36 37 38 39 40
000
FTUS43 KGRB 081700
TAFRHI
TAF
KRHI 081726Z 0818/0918 31009KT P6SM VCSH BKN025
      TEMPO 0818/0822 3SM -SHRA BKN014
     FM082200 30011KT P6SM VCSH SCT025 BKN035
      TEMPO 0822/0824 4SM -SHRA BKN025
     FM090300 29004KT P6SM SCT020 SCT045
     FM090800 28003KT P6SM BKN015
     FM091500 29009G14KT P6SM BKN030 PROB30 0916/0918 4SM -SHRA
      BKN015=

USA.gov is the U.S. government's official web portal to all federal, state and local government web resources and services.